Time;durP1;ratioP1;P1;durP2;ratioP2;P2;SDS_P1;SDS_P2;PMS_P1;PMS_P2;Temp;Humidity;BMP_temperature;BMP_pressure;BME280_temperature;BME280_humidity;BME280_pressure;Samples;Min_cycle;Max_cycle;Signal;HPM_P1;HPM_P2
2023/07/03 00:00:22;;;;;;;;;;;18.30;99.90;;;;;;2096628;28;19952;-78
2023/07/03 00:01:26;;;;;;;;;;;18.30;99.90;;;;;;2095016;28;19923;-77
2023/07/03 00:02:27;;;;;;;;;;;18.40;99.90;;;;;;2092313;28;19927;-77
2023/07/03 00:03:27;;;;;;;;;;;18.30;99.90;;;;;;2099559;28;20294;-77
2023/07/03 00:04:28;;;;;;;;;;;18.30;99.90;;;;;;2092788;28;19956;-77
2023/07/03 00:05:29;;;;;;;;;;;18.30;99.90;;;;;;2085753;28;20409;-77
2023/07/03 00:06:30;;;;;;;;;;;18.30;99.90;;;;;;2098532;28;19923;-78
2023/07/03 00:07:31;;;;;;;;;;;18.30;99.90;;;;;;2090449;28;19916;-78
2023/07/03 00:08:31;;;;;;;;;;;18.30;99.90;;;;;;2091759;28;19916;-77
2023/07/03 00:09:32;;;;;;;;;;;18.30;99.90;;;;;;2095858;28;19978;-78
2023/07/03 00:10:32;;;;;;;;;;;18.30;99.90;;;;;;2099040;28;19922;-78
2023/07/03 00:11:33;;;;;;;;;;;18.30;99.90;;;;;;2091012;28;19977;-79
2023/07/03 00:12:33;;;;;;;;;;;18.30;99.90;;;;;;2093145;28;19920;-78
2023/07/03 00:13:34;;;;;;;;;;;18.30;99.90;;;;;;2096782;28;19916;-79
2023/07/03 00:14:34;;;;;;;;;;;18.30;99.90;;;;;;2098577;28;19918;-79
2023/07/03 00:15:35;;;;;;;;;;;18.20;99.90;;;;;;2096539;28;21242;-79
2023/07/03 00:16:36;;;;;;;;;;;18.20;99.90;;;;;;2096439;28;19916;-78
2023/07/03 00:17:39;;;;;;;;;;;18.20;99.90;;;;;;2096266;28;19920;-79
2023/07/03 00:18:40;;;;;;;;;;;18.20;99.90;;;;;;2096735;28;20003;-79
2023/07/03 00:19:40;;;;;;;;;;;18.20;99.90;;;;;;2096310;28;20272;-79
2023/07/03 00:20:41;;;;;;;;;;;18.10;99.90;;;;;;2095869;28;19923;-79
2023/07/03 00:21:44;;;;;;;;;;;18.10;99.90;;;;;;2098396;28;19916;-79
2023/07/03 00:22:46;;;;;;;;;;;18.10;99.90;;;;;;2094785;28;19921;-79
2023/07/03 00:23:47;;;;;;;;;;;18.10;99.90;;;;;;2092067;28;20759;-78
2023/07/03 00:24:47;;;;;;;;;;;18.00;99.90;;;;;;2096852;28;20007;-78
2023/07/03 00:25:48;;;;;;;;;;;18.00;99.90;;;;;;2096844;28;19912;-78
2023/07/03 00:26:48;;;;;;;;;;;18.00;99.90;;;;;;2089226;28;19913;-79
2023/07/03 00:27:49;;;;;;;;;;;18.00;99.90;;;;;;2095320;28;19924;-77
2023/07/03 00:28:49;;;;;;;;;;;18.00;99.90;;;;;;2095810;28;19913;-78
2023/07/03 00:29:50;;;;;;;;;;;18.00;99.90;;;;;;2095168;28;19951;-79
2023/07/03 00:30:50;;;;;;;;;;;18.00;99.90;;;;;;2098097;28;19916;-80
2023/07/03 00:31:51;;;;;;;;;;;18.00;99.90;;;;;;2096039;28;19970;-78
2023/07/03 00:32:52;;;;;;;;;;;18.10;99.90;;;;;;2091902;28;20438;-79
2023/07/03 00:33:52;;;;;;;;;;;18.10;99.90;;;;;;2103864;28;19916;-78
2023/07/03 00:34:52;;;;;;;;;;;18.10;99.90;;;;;;2085158;28;19909;-77
2023/07/03 00:35:53;;;;;;;;;;;18.10;99.90;;;;;;2093729;28;20393;-77
2023/07/03 00:36:54;;;;;;;;;;;18.10;99.90;;;;;;2103606;28;19935;-78
2023/07/03 00:37:54;;;;;;;;;;;18.10;99.90;;;;;;2094587;28;19916;-77
2023/07/03 00:38:57;;;;;;;;;;;18.10;99.90;;;;;;2092165;28;19915;-76
2023/07/03 00:39:57;;;;;;;;;;;18.10;99.90;;;;;;2093953;28;19958;-77
2023/07/03 00:40:58;;;;;;;;;;;18.10;99.90;;;;;;2096439;28;19974;-78
2023/07/03 00:41:58;;;;;;;;;;;18.10;99.90;;;;;;2093710;28;19916;-78
2023/07/03 00:43:00;;;;;;;;;;;18.10;99.90;;;;;;2091980;28;19913;-78
2023/07/03 00:44:01;;;;;;;;;;;18.10;99.90;;;;;;2088213;28;19912;-78
2023/07/03 00:45:03;;;;;;;;;;;18.10;99.90;;;;;;2092043;28;20800;-78
2023/07/03 00:46:06;;;;;;;;;;;18.10;99.90;;;;;;2096973;28;20390;-78
2023/07/03 00:47:08;;;;;;;;;;;18.20;99.90;;;;;;2093911;28;19948;-78
2023/07/03 00:48:09;;;;;;;;;;;18.10;99.90;;;;;;2097559;28;19919;-78
2023/07/03 00:49:10;;;;;;;;;;;18.10;99.90;;;;;;2087246;28;19952;-79
2023/07/03 00:50:11;;;;;;;;;;;18.10;99.90;;;;;;2095877;28;20004;-78
2023/07/03 00:51:13;;;;;;;;;;;18.10;99.90;;;;;;2096274;28;19920;-77
2023/07/03 00:52:14;;;;;;;;;;;18.10;99.90;;;;;;2098721;28;19982;-77
2023/07/03 00:53:14;;;;;;;;;;;18.10;99.90;;;;;;2096844;28;19924;-80
2023/07/03 00:54:15;;;;;;;;;;;18.10;99.90;;;;;;2084638;28;19952;-77
2023/07/03 00:55:15;;;;;;;;;;;18.00;99.90;;;;;;2096679;28;19911;-77
2023/07/03 00:56:16;;;;;;;;;;;18.00;99.90;;;;;;2098261;28;19913;-77
2023/07/03 00:57:17;;;;;;;;;;;18.00;99.90;;;;;;2095073;28;19916;-77
2023/07/03 00:58:17;;;;;;;;;;;18.00;99.90;;;;;;2095286;28;19945;-76
2023/07/03 00:59:18;;;;;;;;;;;18.00;99.90;;;;;;2095113;28;19963;-76
2023/07/03 01:00:20;;;;;;;;;;;18.00;99.90;;;;;;2098161;28;19920;-78
2023/07/03 01:01:27;;;;;;;;;;;18.00;99.90;;;;;;2098212;28;19970;-78
2023/07/03 01:02:30;;;;;;;;;;;18.00;99.90;;;;;;2096104;28;20453;-78
2023/07/03 01:03:39;;;;;;;;;;;18.00;99.90;;;;;;2096180;28;19912;-78
2023/07/03 01:04:46;;;;;;;;;;;18.00;99.90;;;;;;2098320;28;19912;-78
2023/07/03 01:05:49;;;;;;;;;;;18.00;99.90;;;;;;2098349;28;19923;-77
2023/07/03 01:06:54;;;;;;;;;;;18.00;99.90;;;;;;2096890;28;19923;-78
2023/07/03 01:07:55;;;;;;;;;;;18.10;99.90;;;;;;2092199;28;19948;-78
2023/07/03 01:08:57;;;;;;;;;;;18.00;99.90;;;;;;2088849;28;20447;-77
2023/07/03 01:10:00;;;;;;;;;;;18.10;99.90;;;;;;2094218;28;19920;-78
2023/07/03 01:11:00;;;;;;;;;;;18.10;99.90;;;;;;2086209;28;19921;-77
2023/07/03 01:12:01;;;;;;;;;;;18.10;99.90;;;;;;2087898;28;20006;-77
2023/07/03 01:13:06;;;;;;;;;;;18.10;99.90;;;;;;2098785;28;19999;-77
2023/07/03 01:14:07;;;;;;;;;;;18.10;99.90;;;;;;2097069;28;19919;-77
2023/07/03 01:15:10;;;;;;;;;;;18.10;99.90;;;;;;2099845;28;19917;-78
2023/07/03 01:16:11;;;;;;;;;;;18.10;99.90;;;;;;2100626;28;19920;-78
2023/07/03 01:17:12;;;;;;;;;;;18.10;99.90;;;;;;2099135;28;19916;-78
2023/07/03 01:18:14;;;;;;;;;;;18.10;99.90;;;;;;2089331;28;20026;-78
2023/07/03 01:19:19;;;;;;;;;;;18.10;99.90;;;;;;2084121;28;20027;-77
2023/07/03 01:20:19;;;;;;;;;;;18.10;99.90;;;;;;2096093;28;19943;-77
2023/07/03 01:21:28;;;;;;;;;;;18.10;99.90;;;;;;2097476;28;20488;-77
2023/07/03 01:22:30;;;;;;;;;;;18.00;99.90;;;;;;2087038;28;20383;-77
2023/07/03 01:23:41;;;;;;;;;;;18.00;99.90;;;;;;2093323;28;20578;-77
2023/07/03 01:24:43;;;;;;;;;;;18.00;99.90;;;;;;2096536;28;19939;-77
2023/07/03 01:25:46;;;;;;;;;;;18.00;99.90;;;;;;2098243;28;20011;-77
2023/07/03 01:26:46;;;;;;;;;;;17.90;99.90;;;;;;2093636;28;19913;-77
2023/07/03 01:27:55;;;;;;;;;;;17.90;99.90;;;;;;2087288;28;19916;-78
2023/07/03 01:28:57;;;;;;;;;;;17.90;99.90;;;;;;2095240;28;19935;-77
2023/07/03 01:29:59;;;;;;;;;;;17.90;99.90;;;;;;2095020;28;19916;-78
2023/07/03 01:31:00;;;;;;;;;;;17.90;99.90;;;;;;2087047;28;19916;-75
2023/07/03 01:32:03;;;;;;;;;;;17.90;99.90;;;;;;2098494;28;19935;-77
2023/07/03 01:33:03;;;;;;;;;;;17.90;99.90;;;;;;2091997;28;19920;-76
2023/07/03 01:34:04;;;;;;;;;;;17.90;99.90;;;;;;2092509;28;20066;-77
2023/07/03 01:35:08;;;;;;;;;;;17.90;99.90;;;;;;2092935;28;19970;-77
2023/07/03 01:36:11;;;;;;;;;;;17.90;99.90;;;;;;2096518;28;20414;-78
2023/07/03 01:37:13;;;;;;;;;;;17.90;99.90;;;;;;2098536;28;19916;-77
2023/07/03 01:38:15;;;;;;;;;;;17.90;99.90;;;;;;2091833;28;19916;-78
2023/07/03 01:39:16;;;;;;;;;;;17.90;99.90;;;;;;2083467;28;20023;-77
2023/07/03 01:40:18;;;;;;;;;;;17.90;99.90;;;;;;2091734;28;20418;-77
2023/07/03 01:41:19;;;;;;;;;;;17.90;99.90;;;;;;2092913;28;19928;-77
2023/07/03 01:42:21;;;;;;;;;;;17.90;99.90;;;;;;2097515;28;19916;-78
2023/07/03 01:43:22;;;;;;;;;;;17.90;99.90;;;;;;2089681;28;19951;-78
2023/07/03 01:44:22;;;;;;;;;;;17.80;99.90;;;;;;2087368;28;19978;-78
2023/07/03 01:45:23;;;;;;;;;;;17.80;99.90;;;;;;2087729;28;19948;-78
2023/07/03 01:46:24;;;;;;;;;;;17.80;99.90;;;;;;2093310;28;19964;-72
2023/07/03 01:47:24;;;;;;;;;;;17.80;99.90;;;;;;2088702;28;20018;-74
2023/07/03 01:48:25;;;;;;;;;;;17.80;99.90;;;;;;2086895;28;19917;-77
2023/07/03 01:49:25;;;;;;;;;;;17.80;99.90;;;;;;2084593;28;19923;-74
2023/07/03 01:50:28;;;;;;;;;;;17.80;99.90;;;;;;2085954;28;19963;-77
2023/07/03 01:51:36;;;;;;;;;;;17.80;99.90;;;;;;2093584;28;19917;-78
2023/07/03 01:52:43;;;;;;;;;;;17.80;99.90;;;;;;2092064;28;19916;-77
2023/07/03 01:53:49;;;;;;;;;;;17.80;99.90;;;;;;2089025;28;19916;-77
2023/07/03 01:55:06;;;;;;;;;;;17.80;99.90;;;;;;2097163;28;19952;-77
2023/07/03 01:56:06;;;;;;;;;;;17.80;99.90;;;;;;2089270;28;19958;-77
2023/07/03 01:57:07;;;;;;;;;;;17.70;99.90;;;;;;2090630;28;20501;-77
2023/07/03 01:58:15;;;;;;;;;;;17.70;99.90;;;;;;2091384;28;20406;-76
2023/07/03 01:59:17;;;;;;;;;;;17.70;99.90;;;;;;2092477;28;19920;-77
2023/07/03 02:00:22;;;;;;;;;;;17.60;99.90;;;;;;2097240;28;19916;-77
2023/07/03 02:01:37;;;;;;;;;;;17.60;99.90;;;;;;2096119;28;19961;-76
2023/07/03 02:02:38;;;;;;;;;;;17.60;99.90;;;;;;2096443;28;19919;-78
2023/07/03 02:03:44;;;;;;;;;;;17.60;99.90;;;;;;2084901;28;20402;-77
2023/07/03 02:04:52;;;;;;;;;;;17.50;99.90;;;;;;2097079;28;20621;-77
2023/07/03 02:05:55;;;;;;;;;;;17.50;99.90;;;;;;2094099;28;19920;-80
2023/07/03 02:06:56;;;;;;;;;;;17.50;99.90;;;;;;2095291;28;19924;-77
2023/07/03 02:07:58;;;;;;;;;;;17.50;99.90;;;;;;2086735;28;20330;-77
2023/07/03 02:09:00;;;;;;;;;;;17.50;99.90;;;;;;2082929;28;19917;-77
2023/07/03 02:10:02;;;;;;;;;;;17.50;99.90;;;;;;2092815;28;19971;-78
2023/07/03 02:11:11;;;;;;;;;;;17.50;99.90;;;;;;2089548;28;19923;-77
2023/07/03 02:12:12;;;;;;;;;;;17.50;99.90;;;;;;2094691;28;20011;-78
2023/07/03 02:13:14;;;;;;;;;;;17.50;99.90;;;;;;2094877;28;19938;-77
2023/07/03 02:14:15;;;;;;;;;;;17.50;99.90;;;;;;2086423;28;19923;-77
2023/07/03 02:15:16;;;;;;;;;;;17.50;99.90;;;;;;2088643;28;19975;-77
2023/07/03 02:16:16;;;;;;;;;;;17.50;99.90;;;;;;2088487;28;20340;-77
2023/07/03 02:17:17;;;;;;;;;;;17.40;99.90;;;;;;2094467;28;19912;-78
2023/07/03 02:18:20;;;;;;;;;;;17.40;99.90;;;;;;2096022;28;19915;-77
2023/07/03 02:19:27;;;;;;;;;;;17.40;99.90;;;;;;2091557;28;20015;-78
2023/07/03 02:20:28;;;;;;;;;;;17.40;99.90;;;;;;2091530;28;19913;-77
2023/07/03 02:21:28;;;;;;;;;;;17.40;99.90;;;;;;2096960;28;20482;-77
2023/07/03 02:22:29;;;;;;;;;;;17.40;99.90;;;;;;2094881;28;19974;-78
2023/07/03 02:23:29;;;;;;;;;;;17.40;99.90;;;;;;2094659;28;20367;-78
2023/07/03 02:24:30;;;;;;;;;;;17.40;99.90;;;;;;2094057;28;19912;-78
2023/07/03 02:25:31;;;;;;;;;;;17.40;99.90;;;;;;2101145;28;20358;-77
2023/07/03 02:26:33;;;;;;;;;;;17.40;99.90;;;;;;2099741;28;20480;-77
2023/07/03 02:27:33;;;;;;;;;;;17.30;99.90;;;;;;2091175;28;19942;-77
2023/07/03 02:28:36;;;;;;;;;;;17.30;99.90;;;;;;2091381;28;19912;-76
2023/07/03 02:29:37;;;;;;;;;;;17.30;99.90;;;;;;2093900;28;20422;-77
2023/07/03 02:30:37;;;;;;;;;;;17.30;99.90;;;;;;2095411;28;19919;-77
2023/07/03 02:31:38;;;;;;;;;;;17.30;99.90;;;;;;2094657;28;19967;-78
2023/07/03 02:32:39;;;;;;;;;;;17.30;99.90;;;;;;2086505;28;20014;-77
2023/07/03 02:33:40;;;;;;;;;;;17.30;99.90;;;;;;2094691;28;19917;-78
2023/07/03 02:34:40;;;;;;;;;;;17.30;99.90;;;;;;2097848;28;20007;-78
2023/07/03 02:35:41;;;;;;;;;;;17.30;99.90;;;;;;2092300;28;19956;-77
2023/07/03 02:36:41;;;;;;;;;;;17.30;99.90;;;;;;2096164;28;19959;-78
2023/07/03 02:37:42;;;;;;;;;;;17.30;99.90;;;;;;2096082;28;19981;-79
2023/07/03 02:38:42;;;;;;;;;;;17.30;99.90;;;;;;2093316;28;19991;-78
2023/07/03 02:39:43;;;;;;;;;;;17.30;99.90;;;;;;2092145;28;19919;-79
2023/07/03 02:40:46;;;;;;;;;;;17.30;99.90;;;;;;2091203;28;19952;-78
2023/07/03 02:41:47;;;;;;;;;;;17.30;99.90;;;;;;2083040;28;20352;-79
2023/07/03 02:42:47;;;;;;;;;;;17.30;99.90;;;;;;2092887;28;19924;-78
2023/07/03 02:43:48;;;;;;;;;;;17.40;99.90;;;;;;2089125;28;19919;-79
2023/07/03 02:44:49;;;;;;;;;;;17.40;99.90;;;;;;2083813;28;20008;-78
2023/07/03 02:45:49;;;;;;;;;;;17.40;99.90;;;;;;2074854;28;19917;-79
2023/07/03 02:46:52;;;;;;;;;;;17.40;99.90;;;;;;2078688;28;19924;-78
2023/07/03 02:47:53;;;;;;;;;;;17.50;99.90;;;;;;2084816;28;19916;-77
2023/07/03 02:48:54;;;;;;;;;;;17.50;99.90;;;;;;2084906;28;20726;-78
2023/07/03 02:49:55;;;;;;;;;;;17.50;99.90;;;;;;2078167;28;19924;-77
2023/07/03 02:50:56;;;;;;;;;;;17.50;99.90;;;;;;2081258;28;19917;-77
2023/07/03 02:51:57;;;;;;;;;;;17.50;99.90;;;;;;2089112;28;20375;-78
2023/07/03 02:52:58;;;;;;;;;;;17.60;99.90;;;;;;2092306;28;20330;-77
2023/07/03 02:53:58;;;;;;;;;;;17.60;99.90;;;;;;2082950;28;19935;-78
2023/07/03 02:54:59;;;;;;;;;;;17.60;99.90;;;;;;2093743;28;19920;-78
2023/07/03 02:55:59;;;;;;;;;;;17.60;99.90;;;;;;2105868;28;19915;-77
2023/07/03 02:57:01;;;;;;;;;;;17.60;99.90;;;;;;2093763;28;19995;-77
2023/07/03 02:58:01;;;;;;;;;;;17.60;99.90;;;;;;2096172;28;19947;-78
2023/07/03 02:59:06;;;;;;;;;;;17.60;99.90;;;;;;2096162;28;19917;-78
2023/07/03 03:00:11;;;;;;;;;;;17.60;99.90;;;;;;2088111;28;19923;-77
2023/07/03 03:01:11;;;;;;;;;;;17.60;99.90;;;;;;2090422;28;20027;-78
2023/07/03 03:02:12;;;;;;;;;;;17.70;99.90;;;;;;2086926;28;19912;-77
2023/07/03 03:03:13;;;;;;;;;;;17.70;99.90;;;;;;2083152;28;20475;-77
2023/07/03 03:04:16;;;;;;;;;;;17.70;99.90;;;;;;2091400;28;20410;-78
2023/07/03 03:05:16;;;;;;;;;;;17.70;99.90;;;;;;2092993;28;20016;-78
2023/07/03 03:06:17;;;;;;;;;;;17.70;99.90;;;;;;2103115;28;19920;-77
2023/07/03 03:07:18;;;;;;;;;;;17.70;99.90;;;;;;2087556;28;19977;-77
2023/07/03 03:08:18;;;;;;;;;;;17.70;99.90;;;;;;2083072;28;20019;-77
2023/07/03 03:09:19;;;;;;;;;;;17.70;99.90;;;;;;2092794;28;19987;-76
2023/07/03 03:10:19;;;;;;;;;;;17.70;99.90;;;;;;2099621;28;19916;-77
2023/07/03 03:11:20;;;;;;;;;;;17.70;99.90;;;;;;2095538;28;20351;-78
2023/07/03 03:12:23;;;;;;;;;;;17.70;99.90;;;;;;2093170;28;20334;-78
2023/07/03 03:13:24;;;;;;;;;;;17.80;99.90;;;;;;2085448;28;20342;-77
2023/07/03 03:14:28;;;;;;;;;;;17.80;99.90;;;;;;2089126;28;20474;-77
2023/07/03 03:15:29;;;;;;;;;;;17.80;99.90;;;;;;2092589;28;19954;-78
2023/07/03 03:16:29;;;;;;;;;;;17.80;99.90;;;;;;2097395;28;20012;-76
2023/07/03 03:17:30;;;;;;;;;;;17.80;99.90;;;;;;2098062;28;20508;-77
2023/07/03 03:18:31;;;;;;;;;;;17.80;99.90;;;;;;2096110;28;19912;-77
2023/07/03 03:19:31;;;;;;;;;;;17.80;99.90;;;;;;2086459;28;20015;-78
2023/07/03 03:20:32;;;;;;;;;;;17.80;99.90;;;;;;2094925;28;19912;-78
2023/07/03 03:21:32;;;;;;;;;;;17.80;99.90;;;;;;2092752;28;20402;-77
2023/07/03 03:22:33;;;;;;;;;;;17.80;99.90;;;;;;2085511;28;19960;-77
2023/07/03 03:23:33;;;;;;;;;;;17.80;99.90;;;;;;2090610;28;20374;-77
2023/07/03 03:24:34;;;;;;;;;;;17.80;99.90;;;;;;2097439;28;19920;-77
2023/07/03 03:25:35;;;;;;;;;;;17.80;99.90;;;;;;2094823;28;19970;-77
2023/07/03 03:26:35;;;;;;;;;;;17.80;99.90;;;;;;2097807;28;19921;-78
2023/07/03 03:27:36;;;;;;;;;;;17.80;99.90;;;;;;2094700;28;19942;-77
2023/07/03 03:28:36;;;;;;;;;;;17.80;99.90;;;;;;2096269;28;19919;-77
2023/07/03 03:29:38;;;;;;;;;;;17.90;99.90;;;;;;2095134;28;19913;-77
2023/07/03 03:30:39;;;;;;;;;;;17.90;99.90;;;;;;2095624;28;19955;-77
2023/07/03 03:31:39;;;;;;;;;;;17.80;99.90;;;;;;2088326;28;20758;-76
2023/07/03 03:32:42;;;;;;;;;;;17.90;99.90;;;;;;2088239;28;20000;-77
2023/07/03 03:33:42;;;;;;;;;;;17.90;99.90;;;;;;2090338;28;19923;-76
2023/07/03 03:34:43;;;;;;;;;;;17.90;99.90;;;;;;2094046;28;20022;-77
2023/07/03 03:35:45;;;;;;;;;;;17.80;99.90;;;;;;2084270;28;19923;-77
2023/07/03 03:36:45;;;;;;;;;;;17.80;99.90;;;;;;2093965;28;19916;-79
2023/07/03 03:37:46;;;;;;;;;;;17.90;99.90;;;;;;2086225;28;19916;-79
2023/07/03 03:38:46;;;;;;;;;;;17.80;99.90;;;;;;2079634;28;19999;-77
2023/07/03 03:39:47;;;;;;;;;;;17.80;99.90;;;;;;2079853;28;20007;-78
2023/07/03 03:40:54;;;;;;;;;;;17.80;99.90;;;;;;2096479;28;19986;-77
2023/07/03 03:41:57;;;;;;;;;;;17.80;99.90;;;;;;2090864;28;19977;-78
2023/07/03 03:42:58;;;;;;;;;;;17.80;99.90;;;;;;2087508;28;20590;-78
2023/07/03 03:43:58;;;;;;;;;;;17.80;99.90;;;;;;2098646;28;19912;-77
2023/07/03 03:44:59;;;;;;;;;;;17.80;99.90;;;;;;2091584;28;19916;-77
2023/07/03 03:46:00;;;;;;;;;;;17.80;99.90;;;;;;2092756;28;20399;-78
2023/07/03 03:47:02;;;;;;;;;;;17.80;99.90;;;;;;2085748;28;20023;-77
2023/07/03 03:48:03;;;;;;;;;;;17.80;99.90;;;;;;2092575;28;19919;-77
2023/07/03 03:49:04;;;;;;;;;;;17.80;99.90;;;;;;2098158;28;19927;-78
2023/07/03 03:50:07;;;;;;;;;;;17.80;99.90;;;;;;2095755;28;20279;-78
2023/07/03 03:51:12;;;;;;;;;;;17.80;99.90;;;;;;2088460;28;19935;-77
2023/07/03 03:52:14;;;;;;;;;;;17.80;99.90;;;;;;2086029;28;19913;-77
2023/07/03 03:53:14;;;;;;;;;;;17.80;99.90;;;;;;2084492;28;20357;-77
2023/07/03 03:54:15;;;;;;;;;;;17.80;99.90;;;;;;2090591;28;19923;-77
2023/07/03 03:55:15;;;;;;;;;;;17.80;99.90;;;;;;2092511;28;19928;-77
2023/07/03 03:56:16;;;;;;;;;;;17.70;99.90;;;;;;2087167;28;19921;-77
2023/07/03 03:57:16;;;;;;;;;;;17.80;99.90;;;;;;2084139;28;19917;-77
2023/07/03 03:58:17;;;;;;;;;;;17.80;99.90;;;;;;2093472;28;19920;-77
2023/07/03 03:59:19;;;;;;;;;;;17.70;99.90;;;;;;2094938;28;19912;-77
2023/07/03 04:00:20;;;;;;;;;;;17.80;99.90;;;;;;2095540;28;19912;-77
2023/07/03 04:01:21;;;;;;;;;;;17.80;99.90;;;;;;2087936;28;19983;-77
2023/07/03 04:02:21;;;;;;;;;;;17.80;99.90;;;;;;2093905;28;20309;-79
2023/07/03 04:03:22;;;;;;;;;;;17.80;99.90;;;;;;2093516;28;20003;-78
2023/07/03 04:04:22;;;;;;;;;;;17.80;99.90;;;;;;2087479;28;20482;-77
2023/07/03 04:05:23;;;;;;;;;;;17.90;99.90;;;;;;2098670;28;19979;-79
2023/07/03 04:06:25;;;;;;;;;;;17.90;99.90;;;;;;2092641;28;19942;-78
2023/07/03 04:07:25;;;;;;;;;;;17.90;99.90;;;;;;2094394;28;20442;-80
2023/07/03 04:08:26;;;;;;;;;;;17.90;99.90;;;;;;2099723;28;19916;-78
2023/07/03 04:09:27;;;;;;;;;;;17.90;99.90;;;;;;2090831;28;19947;-79
2023/07/03 04:10:27;;;;;;;;;;;17.90;99.90;;;;;;2095123;28;19942;-79
2023/07/03 04:11:28;;;;;;;;;;;18.00;99.90;;;;;;2095502;28;20335;-79
2023/07/03 04:12:28;;;;;;;;;;;18.10;99.90;;;;;;2090993;28;19916;-79
2023/07/03 04:13:29;;;;;;;;;;;18.20;99.90;;;;;;2096011;28;20348;-78
2023/07/03 04:14:29;;;;;;;;;;;18.30;99.90;;;;;;2099611;28;20011;-79
2023/07/03 04:15:31;;;;;;;;;;;18.40;99.90;;;;;;2093340;28;19956;-79
2023/07/03 04:16:31;;;;;;;;;;;18.40;99.90;;;;;;2094521;28;19925;-78
2023/07/03 04:17:32;;;;;;;;;;;18.50;99.90;;;;;;2092172;28;20417;-77
2023/07/03 04:18:32;;;;;;;;;;;18.60;99.90;;;;;;2097483;28;19950;-79
2023/07/03 04:19:33;;;;;;;;;;;18.70;99.90;;;;;;2096756;28;19943;-78
2023/07/03 04:20:33;;;;;;;;;;;18.80;99.90;;;;;;2096771;28;19913;-78
2023/07/03 04:21:34;;;;;;;;;;;18.90;99.90;;;;;;2095495;28;20453;-77
2023/07/03 04:22:34;;;;;;;;;;;19.10;99.90;;;;;;2089620;28;19912;-78
2023/07/03 04:23:35;;;;;;;;;;;19.20;99.90;;;;;;2097985;28;20357;-77
2023/07/03 04:24:35;;;;;;;;;;;19.40;99.90;;;;;;2097145;28;19960;-77
2023/07/03 04:25:36;;;;;;;;;;;19.70;99.90;;;;;;2093006;28;19963;-78
2023/07/03 04:26:38;;;;;;;;;;;19.90;99.90;;;;;;2092451;28;20476;-78
2023/07/03 04:27:38;;;;;;;;;;;20.10;99.90;;;;;;2096509;28;20426;-77
2023/07/03 04:28:39;;;;;;;;;;;20.40;99.90;;;;;;2092184;28;19916;-78
2023/07/03 04:29:39;;;;;;;;;;;20.70;99.90;;;;;;2092374;28;20340;-77
2023/07/03 04:30:40;;;;;;;;;;;20.90;99.90;;;;;;2093862;28;19924;-79
2023/07/03 04:31:40;;;;;;;;;;;21.10;99.90;;;;;;2096412;28;20463;-79
2023/07/03 04:32:41;;;;;;;;;;;21.20;99.90;;;;;;2098496;28;19916;-78
2023/07/03 04:33:43;;;;;;;;;;;21.20;99.90;;;;;;2097085;28;19969;-79
2023/07/03 04:34:43;;;;;;;;;;;21.30;98.60;;;;;;2092857;28;20493;-75
2023/07/03 04:35:44;;;;;;;;;;;21.10;98.90;;;;;;2096659;28;19955;-76
2023/07/03 04:36:47;;;;;;;;;;;21.00;98.50;;;;;;2085765;28;20326;-77
2023/07/03 04:37:49;;;;;;;;;;;21.00;97.70;;;;;;2091542;28;20894;-77
2023/07/03 04:38:49;;;;;;;;;;;21.10;97.40;;;;;;2092719;28;19919;-76
2023/07/03 04:39:50;;;;;;;;;;;21.10;96.30;;;;;;2093662;28;19969;-76
2023/07/03 04:40:51;;;;;;;;;;;21.20;96.20;;;;;;2098458;28;19959;-74
2023/07/03 04:41:51;;;;;;;;;;;21.30;96.00;;;;;;2096610;28;19978;-74
2023/07/03 04:42:52;;;;;;;;;;;21.60;95.00;;;;;;2090137;28;20477;-76
2023/07/03 04:43:57;;;;;;;;;;;21.60;94.40;;;;;;2089878;28;19916;-75
2023/07/03 04:44:58;;;;;;;;;;;21.70;94.30;;;;;;2094642;28;19916;-75
2023/07/03 04:46:03;;;;;;;;;;;21.50;94.00;;;;;;2093344;28;19917;-74
2023/07/03 04:47:05;;;;;;;;;;;21.60;93.60;;;;;;2092753;28;19961;-74
2023/07/03 04:48:06;;;;;;;;;;;21.70;93.50;;;;;;2095723;28;19969;-74
2023/07/03 04:49:07;;;;;;;;;;;21.80;93.10;;;;;;2096078;28;20349;-72
2023/07/03 04:50:10;;;;;;;;;;;21.50;93.00;;;;;;2096150;28;20274;-74
2023/07/03 04:51:10;;;;;;;;;;;21.40;93.50;;;;;;2096789;28;20340;-73
2023/07/03 04:52:11;;;;;;;;;;;21.50;93.00;;;;;;2098247;28;19973;-74
2023/07/03 04:53:12;;;;;;;;;;;21.70;93.10;;;;;;2091788;28;19959;-74
2023/07/03 04:54:12;;;;;;;;;;;21.70;92.50;;;;;;2092663;28;19917;-73
2023/07/03 04:55:13;;;;;;;;;;;21.90;92.50;;;;;;2097272;28;19966;-73
2023/07/03 04:56:15;;;;;;;;;;;22.20;92.30;;;;;;2094585;28;19948;-73
2023/07/03 04:57:16;;;;;;;;;;;22.10;91.50;;;;;;2095621;28;19916;-73
2023/07/03 04:58:16;;;;;;;;;;;21.90;91.70;;;;;;2097755;28;19916;-73
2023/07/03 04:59:17;;;;;;;;;;;21.70;92.00;;;;;;2095038;28;19931;-73
2023/07/03 05:00:19;;;;;;;;;;;21.90;92.00;;;;;;2093919;28;19912;-73
2023/07/03 05:01:19;;;;;;;;;;;22.20;91.70;;;;;;2090555;28;19916;-73
2023/07/03 05:02:21;;;;;;;;;;;22.20;90.90;;;;;;2092568;28;19923;-73
2023/07/03 05:03:21;;;;;;;;;;;22.20;90.80;;;;;;2096306;28;20421;-73
2023/07/03 05:04:22;;;;;;;;;;;22.20;90.90;;;;;;2092894;28;19916;-73
2023/07/03 05:05:22;;;;;;;;;;;22.30;90.80;;;;;;2097793;28;20024;-74
2023/07/03 05:06:23;;;;;;;;;;;22.30;90.50;;;;;;2095333;28;19923;-74
2023/07/03 05:07:24;;;;;;;;;;;22.20;90.50;;;;;;2093224;28;20576;-71
2023/07/03 05:08:24;;;;;;;;;;;22.10;90.20;;;;;;2088669;28;20438;-72
2023/07/03 05:09:25;;;;;;;;;;;22.20;90.20;;;;;;2087718;28;20122;-73
2023/07/03 05:10:25;;;;;;;;;;;22.30;90.40;;;;;;2098247;28;19989;-74
2023/07/03 05:11:26;;;;;;;;;;;22.40;90.20;;;;;;2093761;28;19956;-74
2023/07/03 05:12:26;;;;;;;;;;;22.50;89.50;;;;;;2096699;28;19932;-73
2023/07/03 05:13:27;;;;;;;;;;;22.40;88.00;;;;;;2095011;28;19920;-73
2023/07/03 05:14:28;;;;;;;;;;;22.50;89.00;;;;;;2098377;28;19947;-74
2023/07/03 05:15:30;;;;;;;;;;;22.60;87.80;;;;;;2096143;28;20308;-73
2023/07/03 05:16:31;;;;;;;;;;;22.50;87.90;;;;;;2093386;28;20145;-73
2023/07/03 05:17:34;;;;;;;;;;;22.50;87.80;;;;;;2091883;28;19917;-74
2023/07/03 05:18:35;;;;;;;;;;;22.60;87.30;;;;;;2096570;28;19916;-73
2023/07/03 05:19:35;;;;;;;;;;;22.80;86.40;;;;;;2096320;28;19916;-73
2023/07/03 05:20:36;;;;;;;;;;;22.90;85.90;;;;;;2097213;28;20370;-72
2023/07/03 05:21:36;;;;;;;;;;;22.90;86.80;;;;;;2095596;28;19916;-72
2023/07/03 05:22:37;;;;;;;;;;;22.90;85.80;;;;;;2095801;28;19973;-73
2023/07/03 05:23:38;;;;;;;;;;;23.00;85.50;;;;;;2098083;28;19919;-73
2023/07/03 05:24:38;;;;;;;;;;;22.80;85.30;;;;;;2097479;28;19912;-74
2023/07/03 05:25:39;;;;;;;;;;;22.70;85.00;;;;;;2092127;28;20348;-74
2023/07/03 05:26:39;;;;;;;;;;;22.50;85.60;;;;;;2096399;28;19939;-73
2023/07/03 05:27:40;;;;;;;;;;;22.40;86.30;;;;;;2096942;28;19923;-72
2023/07/03 05:28:40;;;;;;;;;;;22.40;86.00;;;;;;2098384;28;20041;-73
2023/07/03 05:29:41;;;;;;;;;;;22.30;85.90;;;;;;2093118;28;19917;-73
2023/07/03 05:30:41;;;;;;;;;;;22.20;86.00;;;;;;2093934;28;19917;-72
2023/07/03 05:31:44;;;;;;;;;;;22.20;86.70;;;;;;2095897;28;20525;-71
2023/07/03 05:32:46;;;;;;;;;;;22.20;86.60;;;;;;2098347;28;19935;-73
2023/07/03 05:33:46;;;;;;;;;;;22.20;87.50;;;;;;2096558;28;20003;-72
2023/07/03 05:34:47;;;;;;;;;;;22.20;86.90;;;;;;2096651;28;19920;-73
2023/07/03 05:35:47;;;;;;;;;;;22.30;86.20;;;;;;2096176;28;19920;-72
2023/07/03 05:36:48;;;;;;;;;;;22.30;85.70;;;;;;2096465;28;20000;-72
2023/07/03 05:37:48;;;;;;;;;;;22.40;85.50;;;;;;2097716;28;19912;-73
2023/07/03 05:38:49;;;;;;;;;;;22.30;85.50;;;;;;2094884;28;19919;-74
2023/07/03 05:39:49;;;;;;;;;;;22.40;86.10;;;;;;2094910;28;20349;-74
2023/07/03 05:40:50;;;;;;;;;;;22.10;86.40;;;;;;2097819;28;19960;-73
2023/07/03 05:41:51;;;;;;;;;;;22.10;86.90;;;;;;2098192;28;19916;-73
2023/07/03 05:42:51;;;;;;;;;;;22.20;87.10;;;;;;2096261;28;20395;-73
2023/07/03 05:43:51;;;;;;;;;;;22.20;86.70;;;;;;2096701;28;19980;-75
2023/07/03 05:44:52;;;;;;;;;;;22.00;86.10;;;;;;2096400;28;19916;-72
2023/07/03 05:45:52;;;;;;;;;;;21.70;87.10;;;;;;2095838;28;19912;-74
2023/07/03 05:46:53;;;;;;;;;;;21.40;88.60;;;;;;2095859;28;19995;-74
2023/07/03 05:47:53;;;;;;;;;;;21.40;89.30;;;;;;2098055;28;20042;-73
2023/07/03 05:48:54;;;;;;;;;;;21.40;89.40;;;;;;2095623;28;20004;-73
2023/07/03 05:49:55;;;;;;;;;;;21.60;90.10;;;;;;2095324;28;20139;-73
2023/07/03 05:50:56;;;;;;;;;;;21.80;89.10;;;;;;2095073;28;19920;-74
2023/07/03 05:51:56;;;;;;;;;;;22.00;89.10;;;;;;2095732;28;20010;-72
2023/07/03 05:52:57;;;;;;;;;;;22.20;88.30;;;;;;2098320;28;19928;-73
2023/07/03 05:53:57;;;;;;;;;;;22.20;87.80;;;;;;2092484;28;19920;-75
2023/07/03 05:54:58;;;;;;;;;;;22.50;86.70;;;;;;2098810;28;19912;-74
2023/07/03 05:55:58;;;;;;;;;;;22.50;86.70;;;;;;2095559;28;20394;-71
2023/07/03 05:57:04;;;;;;;;;;;22.40;85.70;;;;;;2096870;28;19912;-73